Gordon Reid — CGBR — position and weather

sailwx.info

Track history (hours):
 
Tides and Currents Weather Stations Pressure Air Temp Water Temp Dewpoint Dewpoint Depression Visibility Wind Speed Wind Dir Waves Ship Positions

Gordon Reid

Last reported at 2014-Nov-20 22:00 UTC. Time now 2014-Nov-20 23:05 UTC.
Position N 54°18' W 130°18'.

Length 49.95 m; beam 11 m; draft 5.4 m.

Type: SAR. MMSI: 316094000.

Wind from 140 at 5 knots

Barometer 999.5 mb
Air temperature 8.3 ° C
Dewpoint 8.5 ° C
Water temperature 9.7 ° C

Date/timePositionNaut miles runAvg speedWind from/ knotsBaromVisibWave heightAir tempDewpointWater temp
2014-Nov-20 22:00N 54°18' W 130°18'0 0.0 140 / 5999.5 8.3 8.5 9.7
2014-Nov-20 21:00N 54°18' W 130°18'0 0.0 110 / 6999.7 9.1 9.3 9.0
2014-Nov-20 20:00N 54°18' W 130°18'1 3.0 080 / 21000.6 7.9 8.1
2014-Nov-20 19:32N 54°19' W 130°19'1 2.5
2014-Nov-20 19:00N 54°18' W 130°18'1 2.7 1001.2 8.7 8.9 9.2
2014-Nov-20 18:29N 54°19' W 130°19'1 2.8
2014-Nov-20 18:00N 54°18' W 130°18'1 2.5 080 / 21001.4 8.5 8.7 9.1
2014-Nov-20 17:26N 54°19' W 130°19'1 3.1
2014-Nov-20 17:00N 54°18' W 130°18'1 3.0 350 / 11001.7 8.6 8.8 8.9
2014-Nov-20 16:32N 54°19' W 130°19'1 2.5
2014-Nov-20 16:00N 54°18' W 130°18'3 5.9 060 / 61002.1 8.2 8.4 8.2
2014-Nov-20 15:33N 54°17' W 130°22'5 9.0
2014-Nov-20 15:00N 54°12' W 130°24'7 7.0 120 / 131002.3 8.1 8.2 9.2
2014-Nov-20 14:00N 54°06' W 130°18'1312.5 080 / 121002.8 6.7 6.9 9.5
2014-Nov-20 13:00N 53°54' W 130°12'4 3.5 130 / 171002.9 8.9 9.0 9.5
2014-Nov-20 12:00N 53°54' W 130°18'7 7.0 040 / 81002.9 8.8 8.9 9.7
2014-Nov-20 11:00N 53°48' W 130°12'7 7.0 130 / 71003.2 11.811.8 9.9
2014-Nov-20 10:00N 53°42' W 130°06'1312.5 110 / 121003.8 10.510.6 9.1
2014-Nov-20 09:00N 53°30' W 130°00'7 7.0 110 / 31004.3 8.4 8.7 8.9
2014-Nov-20 08:00N 53°24' W 129°54'7 7.0 140 / 21004.7 8.6 8.8 9.0
2014-Nov-20 07:00N 53°18' W 129°48'4 3.6 040 / 51004.6 9.3 9.3 9.0
2014-Nov-20 06:00N 53°18' W 129°42'0 0.0 110 / 91005.0 9.2 9.2
2014-Nov-20 05:00N 53°18' W 129°42'0 0.0 330 / 31005.3 8.7 8.8
2014-Nov-20 04:00N 53°18' W 129°42'0 0.0 120 / 131006.5 8.6 8.7
2014-Nov-20 03:00N 53°18' W 129°42'0 0.0 110 / 91007.1 8.9 9.0 9.1
2014-Nov-20 02:00N 53°18' W 129°42'0 0.0 100 / 131007.3 8.4 8.5 9.1
2014-Nov-20 01:00N 53°18' W 129°42'0 0.0 120 / 101008.2 7.8 7.9 9.1
2014-Nov-20 00:00N 53°18' W 129°42'1312.5 110 / 111008.1 7.9 8.0 9.0
2014-Nov-19 23:00N 53°06' W 129°36'7 3.5 070 / 101008.0 7.9 8.0 9.4
2014-Nov-19 21:00N 53°00' W 129°30'1414.0 050 / 61008.4 8.8 8.8 9.6
2014-Nov-19 20:00N 53°12' W 129°42'1414.0 120 / 161009.3 7.6 7.7 9.1
2014-Nov-19 19:00N 53°24' W 129°54'7 7.0 290 / 71009.9 8.1 8.3 9.0
2014-Nov-19 18:00N 53°30' W 130°00'0 0.0 090 / 11010.8 8.5 8.6
2014-Nov-19 17:00N 53°30' W 130°00'0 0.0 090 / 71011.0 9.3 9.4
2014-Nov-19 16:00N 53°30' W 130°00'0 0.0 180 / 31011.4 9.6 9.6
2014-Nov-19 15:00N 53°30' W 130°00'0 0.0 150 / 61011.7 10.310.2
2014-Nov-19 14:00N 53°30' W 130°00'0 0.0 190 / 41012.0 9.7 9.7
2014-Nov-19 13:00N 53°30' W 130°00'0 0.0 140 / 71012.5 9.8 9.8
2014-Nov-19 12:00N 53°30' W 130°00'0 0.0 170 / 91012.8 10.310.3
2014-Nov-19 11:00N 53°30' W 130°00'0 0.0 150 / 81013.5 10.710.7
2014-Nov-19 10:00N 53°30' W 130°00'0 0.0 180 / 81013.8 10.210.2
2014-Nov-19 09:00N 53°30' W 130°00'0 0.0 140 / 51014.0 10.410.4
2014-Nov-19 08:00N 53°30' W 130°00'0 0.0 180 / 51014.0 10.210.2
2014-Nov-19 07:00N 53°30' W 130°00'0 0.0 160 / 51014.3 10.810.9
2014-Nov-19 06:00N 53°30' W 130°00'0 0.0 140 / 51014.4 10.310.4
2014-Nov-19 05:00N 53°30' W 130°00'0 0.0 140 / 41014.6 10.210.3
2014-Nov-19 04:00N 53°30' W 130°00'0 0.0 130 / 61014.9 10.310.4
2014-Nov-19 03:00N 53°30' W 130°00'0 0.0 140 / 61015.2 10.110.3
2014-Nov-19 02:00N 53°30' W 130°00'0 0.0 160 / 31015.6 9.810.0
2014-Nov-19 01:00N 53°30' W 130°00'0 0.0 150 / 11015.8 8.6 8.9 9.0
2014-Nov-19 00:00N 53°30' W 130°00'0 0.0 170 / 21016.0 8.9 9.1 8.9
2014-Nov-18 23:00N 53°30' W 130°00'7 7.0 160 / 71016.0 8.7 8.9 9.0
2014-Nov-18 22:00N 53°24' W 129°54'2210.8 120 / 151016.2 10.210.4 8.8
2014-Nov-18 20:00N 53°12' W 129°24'1414.0 050 / 121018.0 5.3 5.4 8.6
2014-Nov-18 19:00N 53°24' W 129°12'6 6.0 010 / 271019.3 13.713.1 8.8
2014-Nov-18 18:00N 53°30' W 129°12'0 0.0 310 / 81019.5 2.8 2.8
2014-Nov-18 17:00N 53°30' W 129°12'0 0.0 300 / 151019.4 2.5 2.5
2014-Nov-18 16:00N 53°30' W 129°12'0 0.0 310 / 21019.5 2.7 2.7
2014-Nov-18 15:00N 53°30' W 129°12'0 0.0 320 / 21019.8 2.3 2.3
2014-Nov-18 14:00N 53°30' W 129°12'0 0.0 310 / 31020.1 2.4 2.4
2014-Nov-18 13:00N 53°30' W 129°12'0 0.0 280 / 81020.8 2.8 2.7
2014-Nov-18 12:00N 53°30' W 129°12'0 0.0 240 / 51020.4 3.2 2.9
2014-Nov-18 11:00N 53°30' W 129°12'0 0.0 310 / 51021.2 3.1 2.8
2014-Nov-18 10:00N 53°30' W 129°12'0 0.0 020 / 101021.8 3.7 1.7
2014-Nov-18 09:00N 53°30' W 129°12'0 0.0 340 / 61021.0 4.1 0.8
2014-Nov-18 08:00N 53°30' W 129°12'0 0.0 010 / 81020.8 4.1 0.8
2014-Nov-18 07:00N 53°30' W 129°12'0 0.0 030 / 71021.4 3.8 0.6
2014-Nov-18 06:00N 53°30' W 129°12'0 0.0 360 / 51021.8 3.9 0.5
2014-Nov-18 05:00N 53°30' W 129°12'0 0.0 340 / 21022.3 3.9 0.8
2014-Nov-18 04:00N 53°30' W 129°12'0 0.0 340 / 51023.0 3.8 0.4
2014-Nov-18 03:00N 53°30' W 129°12'0 0.0 330 / 81023.5 3.6 0.3
2014-Nov-18 02:00N 53°30' W 129°12'0 0.0 360 / 41024.3 3.8 0.5
2014-Nov-18 01:00N 53°30' W 129°12'0 0.0 310 / 61024.7 3.8 0.8
2014-Nov-18 00:00N 53°30' W 129°12'0 0.0 320 / 71025.3 4.2 0.9
2014-Nov-17 23:00N 53°30' W 129°12'0 0.0 360 / 41025.8 4.2 1.0
2014-Nov-17 22:00N 53°30' W 129°12'0 0.0 320 / 81026.4 3.9 0.7
2014-Nov-17 21:00N 53°30' W 129°12'0 0.0 320 / 71026.9 3.6 0.7
2014-Nov-17 20:00N 53°30' W 129°12'0 0.0 330 / 61027.6 3.0 0.3
2014-Nov-17 19:00N 53°30' W 129°12'0 0.0 330 / 81027.9 2.7 0.1 8.4
2014-Nov-17 18:00N 53°30' W 129°12'0 0.0 350 / 81028.1 2.3 0.1 8.3
2014-Nov-17 17:00N 53°30' W 129°12'6 6.0 360 / 61028.3 2.1 0.1 8.3
2014-Nov-17 16:00N 53°24' W 129°12'7 3.5 060 / 71027.6 2.2 1.3 8.2
2014-Nov-17 14:00N 53°18' W 129°18'0 0.0 340 / 61028.3 4.4 1.7 8.5
2014-Nov-17 13:00N 53°18' W 129°18'4 3.6 010 / 41028.5 4.6 2.5 8.4
2014-Nov-17 12:00N 53°18' W 129°12'0 0.0 030 / 181028.7 3.6 2.4 8.3
2014-Nov-17 11:00N 53°18' W 129°12'9 9.3 020 / 161028.7 3.0 2.9 8.6
2014-Nov-17 10:00N 53°24' W 129°24'1414.0 260 / 31029.2 2.6 2.4 7.0
2014-Nov-17 09:00N 53°36' W 129°36'9 9.3 250 / 61030.3 1.3 1.3 9.4
2014-Nov-17 08:00N 53°42' W 129°48'1413.9 190 / 91030.1 2.6 2.5 8.3
2014-Nov-17 07:00N 53°54' W 130°00'7 7.1 220 / 61030.4 2.0 2.0 8.5
2014-Nov-17 06:00N 53°54' W 130°12'1413.9 290 / 51030.3 3.4 3.3 8.1
2014-Nov-17 05:00N 54°06' W 130°24'817.5 210 / 61030.2 5.4 4.1 8.0
2014-Nov-17 04:33N 54°14' W 130°21'5 8.5
2014-Nov-17 04:00N 54°18' W 130°24'2 4.0 050 / 51030.2 4.4 4.3 7.2
2014-Nov-17 03:33N 54°19' W 130°21'2 3.7
2014-Nov-17 03:00N 54°18' W 130°18'2 4.4 130 / 41030.5 0.8 0.8
2014-Nov-17 02:32N 54°20' W 130°17'2 3.7
2014-Nov-17 02:00N 54°18' W 130°18'2 4.4 150 / 41030.6 1.1 1.1
2014-Nov-17 01:32N 54°20' W 130°17'2 3.7
2014-Nov-17 01:00N 54°18' W 130°18'2 4.4 160 / 41031.1 1.6 1.6
2014-Nov-17 00:32N 54°20' W 130°17'2 3.7
2014-Nov-17 00:00N 54°18' W 130°18'2 4.4 150 / 21031.1 3.2 3.2 9.5
2014-Nov-16 23:32N 54°20' W 130°17'2 3.7
2014-Nov-16 23:00N 54°18' W 130°18'2 4.4 230 / 21031.7 4.7 4.0 9.3
2014-Nov-16 22:32N 54°20' W 130°17'2 3.7
2014-Nov-16 22:00N 54°18' W 130°18'2 5.3 190 / 11031.7 5.2 3.4 9.3
2014-Nov-16 21:34N 54°20' W 130°17'5 8.2
2014-Nov-16 21:00N 54°18' W 130°24'5 9.6 050 / 31032.4 4.5 4.4 8.2
2014-Nov-16 20:27N 54°13' W 130°21'715.9
2014-Nov-16 20:00N 54°06' W 130°18'1312.5 100 / 21032.5 5.0 2.6 8.6
2014-Nov-16 19:00N 53°54' W 130°12'7 7.0 090 / 81032.6 3.5 2.4 7.9
2014-Nov-16 18:00N 53°48' W 130°18'9 9.3 110 / 31032.5 2.2 2.0 9.1
2014-Nov-16 17:00N 53°42' W 130°06'1312.5 010 / 31032.4 1.5 1.4 8.7
2014-Nov-16 16:00N 53°30' W 130°00'0 0.0 100 / 51032.3 2.5 1.2
2014-Nov-16 15:00N 53°30' W 130°00'0 0.0 090 / 51032.4 2.9 2.8
2014-Nov-16 14:00N 53°30' W 130°00'0 0.0 130 / 71032.4 3.0 2.6
2014-Nov-16 13:00N 53°30' W 130°00'0 0.0 110 / 71033.0 3.5 2.7
2014-Nov-16 12:00N 53°30' W 130°00'0 0.0 160 / 51033.5 3.3 2.3
2014-Nov-16 11:00N 53°30' W 130°00'0 0.0 110 / 51033.5 2.7 2.1
2014-Nov-16 10:00N 53°30' W 130°00'0 0.0 090 / 51033.8 2.7 2.7
2014-Nov-16 09:00N 53°30' W 130°00'0 0.0 110 / 31033.6 2.8 2.7
2014-Nov-16 08:00N 53°30' W 130°00'0 0.0 100 / 31033.5 3.2 2.5
2014-Nov-16 07:00N 53°30' W 130°00'0 0.0 110 / 31033.1 2.8 2.7
2014-Nov-16 06:00N 53°30' W 130°00'0 0.0 090 / 11032.9 3.6 3.5
2014-Nov-16 05:00N 53°30' W 130°00'0 0.0 100 / 41032.9 3.6 3.6 8.9
2014-Nov-16 04:00N 53°30' W 130°00'0 0.0 120 / 61032.8 4.6 4.0 9.1
2014-Nov-16 03:00N 53°30' W 130°00'0 0.0 110 / 41032.3 4.9 4.2 9.1
2014-Nov-16 02:00N 53°30' W 130°00'1212.3 170 / 91031.8 6.5 5.3 9.0
2014-Nov-16 01:00N 53°36' W 130°18'1110.7 210 / 71031.5 6.7 4.9 9.5
2014-Nov-16 00:00N 53°36' W 130°36'6 6.0 160 / 111031.3 8.2 6.210.2
2014-Nov-15 23:00N 53°30' W 130°36'0 0.0 140 / 41031.1 8.3 5.910.2
2014-Nov-15 22:00N 53°30' W 130°36'0 0.0 160 / 111030.9 8.5 4.810.1
2014-Nov-15 21:00N 53°30' W 130°36'0 0.0 140 / 51030.9 8.4 4.610.2
2014-Nov-15 20:00N 53°30' W 130°36'0 0.0 180 / 111030.8 8.8 3.710.0
2014-Nov-15 19:00N 53°30' W 130°36'6 6.0 140 / 31030.5 8.1 2.910.2
2014-Nov-15 18:00N 53°36' W 130°36'0 0.0 080 / 31030.1 6.6 1.0
2014-Nov-15 17:00N 53°36' W 130°36'0 0.0 140 / 61029.6 5.6-1.5
2014-Nov-15 16:00N 53°36' W 130°36'0 0.0 110 / 61029.2 5.3-1.8
2014-Nov-15 15:00N 53°36' W 130°36'0 0.0 110 / 51028.8 4.2-1.7
2014-Nov-15 14:00N 53°36' W 130°36'0 0.0 110 / 71028.5 5.4-2.1
2014-Nov-15 12:00N 53°36' W 130°36'0 0.0 080 / 41027.7 5.0-2.0
2014-Nov-15 11:00N 53°36' W 130°36'0 0.0 110 / 71027.3 6.3-1.2
2014-Nov-15 10:00N 53°36' W 130°36'0 0.0 1027.1 3.3 1.4
2014-Nov-15 09:00N 53°36' W 130°36'0 0.0 110 / 21026.8 6.6-0.6
2014-Nov-15 08:00N 53°36' W 130°36'0 0.0 060 / 31026.3 4.4 3.0
2014-Nov-15 07:00N 53°36' W 130°36'0 0.0 080 / 21025.6 4.7 2.4
2014-Nov-15 06:00N 53°36' W 130°36'0 0.0 060 / 31025.0 4.5 4.1
2014-Nov-15 05:00N 53°36' W 130°36'0 0.0 090 / 31024.6 6.9 2.010.1
2014-Nov-15 04:00N 53°36' W 130°36'0 0.0 070 / 41024.2 6.0 4.310.2
2014-Nov-15 03:00N 53°36' W 130°36'0 0.0 050 / 11023.9 5.8 5.310.3
2014-Nov-15 02:00N 53°36' W 130°36'4 3.6 070 / 111023.5 8.3 7.410.3
2014-Nov-15 01:00N 53°36' W 130°42'0 0.0 070 / 31023.6 8.9 7.410.5
2014-Nov-15 00:00N 53°36' W 130°42'0 0.0 060 / 31023.6 9.7 6.610.3
2014-Nov-14 23:00N 53°36' W 130°42'9 9.3 050 / 91023.7 9.1 7.010.2
2014-Nov-14 22:00N 53°42' W 130°30'0 0.0 070 / 21023.9 8.7 4.610.0
2014-Nov-14 21:00N 53°42' W 130°30'0 0.0 080 / 51024.0 7.9 4.310.1
2014-Nov-14 20:00N 53°42' W 130°30'4 3.6 050 / 41023.8 8.1 4.510.0
2014-Nov-14 19:00N 53°42' W 130°36'7 7.0 080 / 31023.5 6.8 4.7 9.9
2014-Nov-14 18:00N 53°48' W 130°30'0 0.0 030 / 21023.3 5.8 1.4
2014-Nov-14 17:00N 53°48' W 130°30'0 0.0 040 / 61023.0 4.8 0.2
2014-Nov-14 16:00N 53°48' W 130°30'0 0.0 030 / 41022.5 4.0 0.8
2014-Nov-14 15:00N 53°48' W 130°30'0 0.0 010 / 51022.3 3.9 0.4
2014-Nov-14 14:00N 53°48' W 130°30'0 0.0 360 / 41022.2 4.5 1.0
2014-Nov-14 13:00N 53°48' W 130°30'0 0.0 020 / 51022.1 4.6 1.4
2014-Nov-14 12:00N 53°48' W 130°30'0 0.0 290 / 21022.1 2.6 2.0
2014-Nov-14 11:00N 53°48' W 130°30'0 0.0 290 / 11021.8 2.8 2.5
2014-Nov-14 10:00N 53°48' W 130°30'0 0.0 310 / 21021.4 2.8 2.1
2014-Nov-14 09:00N 53°48' W 130°30'0 0.0 340 / 21021.3 3.0 2.4
2014-Nov-14 08:00N 53°48' W 130°30'0 0.0 1020.9 3.0 2.3
2014-Nov-14 07:00N 53°48' W 130°30'0 0.0 350 / 21020.3 3.5 2.7
2014-Nov-14 06:00N 53°48' W 130°30'0 0.0 350 / 11019.7 3.5 2.7
2014-Nov-14 05:00N 53°48' W 130°30'0 0.0 360 / 21019.3 3.9 2.2
2014-Nov-14 04:00N 53°48' W 130°30'0 0.0 010 / 21018.9 4.7 2.9
2014-Nov-14 03:00N 53°48' W 130°30'0 0.0 360 / 71018.4 5.8 3.010.3
2014-Nov-14 02:00N 53°48' W 130°30'0 0.0 330 / 21018.3 4.8 4.410.4
2014-Nov-14 01:00N 53°48' W 130°30'4 3.5 290 / 31018.4 5.0 4.810.4
2014-Nov-14 00:00N 53°48' W 130°36'9 9.3 260 / 61018.4 8.6 6.710.3
2014-Nov-13 23:00N 53°54' W 130°48'4 3.5 230 / 11018.6 8.5 5.510.4
2014-Nov-13 22:00N 53°54' W 130°54'0 0.0 050 / 51018.9 9.7 6.610.7
2014-Nov-13 21:00N 53°54' W 130°54'0 0.0 060 / 61019.0 8.1 4.911.1
2014-Nov-13 20:00N 53°54' W 130°54'4 3.5 040 / 41019.2 8.1 5.110.7
2014-Nov-13 19:00N 53°54' W 130°48'6 6.0 060 / 21019.1 8.8 4.210.5
2014-Nov-13 18:00N 54°00' W 130°48'6 6.0 040 / 71018.8 7.6 2.010.5
2014-Nov-13 17:00N 54°06' W 130°48'6 6.0 020 / 51019.0 6.6 5.010.7
2014-Nov-13 16:00N 54°12' W 130°48'1 1.4 050 / 71018.8 6.4 4.1
2014-Nov-13 15:05N 54°13' W 130°46'113.4
2014-Nov-13 15:00N 54°12' W 130°48'1 2.7 050 / 101018.8 6.2 3.9
2014-Nov-13 14:32N 54°13' W 130°46'1 2.3
2014-Nov-13 14:00N 54°12' W 130°48'1 2.7 040 / 91019.1 6.3 3.7
2014-Nov-13 13:32N 54°13' W 130°46'1 2.3
2014-Nov-13 13:00N 54°12' W 130°48'1 2.5 060 / 91019.5 6.5 4.6
2014-Nov-13 12:29N 54°13' W 130°46'1 2.5
2014-Nov-13 12:00N 54°12' W 130°48'1 2.7 060 / 91020.0 6.7 5.3
2014-Nov-13 11:32N 54°13' W 130°46'1 2.3
2014-Nov-13 11:00N 54°12' W 130°48'1 1.5 060 / 81020.4 7.1 4.5
2014-Nov-13 10:11N 54°13' W 130°46'1 6.5
2014-Nov-13 10:00N 54°12' W 130°48'1 1.8 050 / 101020.7 6.8 5.2
2014-Nov-13 09:17N 54°13' W 130°46'1 4.3
2014-Nov-13 09:00N 54°12' W 130°48'1 2.7 140 / 31021.1 6.4 5.7
2014-Nov-13 08:32N 54°13' W 130°46'1 2.3
2014-Nov-13 08:00N 54°12' W 130°48'1 2.4 070 / 71021.1 7.4 4.4
2014-Nov-13 07:29N 54°13' W 130°46'1 2.5
2014-Nov-13 07:00N 54°12' W 130°48'1 2.7 070 / 101021.2 7.2 5.1
2014-Nov-13 06:32N 54°13' W 130°46'1 2.2
2014-Nov-13 06:00N 54°12' W 130°48'1 2.5 050 / 111020.9 7.3 5.7
2014-Nov-13 05:29N 54°13' W 130°46'1 2.5
2014-Nov-13 05:00N 54°12' W 130°48'1 2.7 070 / 81020.9 7.5 5.8
2014-Nov-13 04:32N 54°13' W 130°46'1 2.3
2014-Nov-13 04:00N 54°12' W 130°48'1 2.7 080 / 41021.0 7.6 7.3
2014-Nov-13 03:32N 54°13' W 130°46'1 2.3
2014-Nov-13 03:00N 54°12' W 130°48'1 2.7 040 / 91021.1 7.6 6.1
2014-Nov-13 02:32N 54°13' W 130°46'1 2.3
2014-Nov-13 02:00N 54°12' W 130°48'1 2.5 110 / 21021.3 6.1 5.711.1
2014-Nov-13 01:29N 54°13' W 130°46'1 2.5
2014-Nov-13 01:00N 54°12' W 130°48'1 2.7 170 / 11021.7 6.1 6.011.2
2014-Nov-13 00:32N 54°13' W 130°46'1 2.3
2014-Nov-13 00:00N 54°12' W 130°48'1 2.5 050 / 61022.2 8.0 4.811.2
2014-Nov-12 23:30N 54°13' W 130°46'3 5.2
2014-Nov-12 23:00N 54°12' W 130°42'4 8.5 350 / 31022.6 7.1 4.410.7
2014-Nov-12 22:33N 54°11' W 130°36'712.4
2014-Nov-12 22:00N 54°12' W 130°24'1413.9 040 / 61023.1 8.1 3.0 9.4
2014-Nov-12 21:00N 54°00' W 130°12'7 7.0 070 / 31024.1 5.7 3.1 9.0
2014-Nov-12 20:00N 53°54' W 130°06'1616.0 060 / 21024.6 6.1 2.5 8.6
2014-Nov-12 19:00N 53°42' W 129°48'1414.0 130 / 61025.8 5.0 2.4 8.5
2014-Nov-12 18:00N 53°30' W 129°36'1212.3 160 / 31026.3 5.8-0.9 7.8
2014-Nov-12 17:00N 53°24' W 129°18'0 0.0 360 / 91025.9 4.0-1.5 8.6
2014-Nov-12 16:00N 53°24' W 129°18'0 0.0 350 / 91027.2 3.2-1.6
2014-Nov-12 15:00N 53°24' W 129°18'0 0.0 350 / 61027.7 2.9-1.8
2014-Nov-12 14:00N 53°24' W 129°18'0 0.0 360 / 101027.8 3.1-1.5
2014-Nov-12 13:00N 53°24' W 129°18'0 0.0 360 / 101028.0 3.2-1.4
2014-Nov-12 12:00N 53°24' W 129°18'0 0.0 340 / 51028.3 3.0-1.4
2014-Nov-12 11:00N 53°24' W 129°18'0 0.0 350 / 71028.6 3.2-1.5
2014-Nov-12 10:00N 53°24' W 129°18'0 0.0 350 / 81028.9 3.4-1.3
2014-Nov-12 09:00N 53°24' W 129°18'0 0.0 360 / 101029.0 3.6-1.2
2014-Nov-12 08:00N 53°24' W 129°18'0 0.0 350 / 41029.4 3.7-1.2
2014-Nov-12 07:00N 53°24' W 129°18'0 0.0 340 / 31029.4 3.9-1.2
2014-Nov-12 06:00N 53°24' W 129°18'0 0.0 340 / 71029.2 4.4-0.7
2014-Nov-12 05:00N 53°24' W 129°18'0 0.0 350 / 41028.9 4.6-0.3
2014-Nov-12 04:00N 53°24' W 129°18'0 0.0 350 / 71028.7 4.9-0.1
2014-Nov-12 03:00N 53°24' W 129°18'0 0.0 350 / 91028.4 5.2 0.1 8.3
2014-Nov-12 02:00N 53°24' W 129°18'0 0.0 350 / 101028.0 5.7 0.6 8.6
2014-Nov-12 01:00N 53°24' W 129°18'4 3.6 360 / 121028.0 6.3 0.9 8.6
2014-Nov-12 00:00N 53°24' W 129°12'1212.3 030 / 161027.4 6.8 1.5 8.8
2014-Nov-11 23:00N 53°18' W 128°54'7 7.0 030 / 121027.5 7.5 1.1 9.2
2014-Nov-11 22:00N 53°12' W 128°48'9 9.4 240 / 51027.9 5.8 3.2 9.0
2014-Nov-11 21:00N 53°06' W 128°36'1312.5 360 / 161027.5 6.0 3.0 8.6
2014-Nov-11 20:00N 52°54' W 128°30'1312.5 030 / 91027.5 5.8 3.6 8.8
2014-Nov-11 19:00N 52°42' W 128°36'7 7.0 030 / 141026.8 5.6 4.7 9.0
2014-Nov-11 18:00N 52°36' W 128°30'1212.0 360 / 151026.6 6.7 3.8 9.5
2014-Nov-11 17:00N 52°24' W 128°30'9 9.5 100 / 131025.6 7.8 2.8 9.8
2014-Nov-11 16:00N 52°30' W 128°42'0 0.0 360 / 41025.2 5.4 1.9
2014-Nov-11 15:00N 52°30' W 128°42'0 0.0 010 / 71025.0 6.1 2.3
2014-Nov-11 14:00N 52°30' W 128°42'0 0.0 360 / 61024.8 6.3 3.0
2014-Nov-11 13:00N 52°30' W 128°42'0 0.0 020 / 61024.8 6.6 3.4
2014-Nov-11 12:00N 52°30' W 128°42'0 0.0 040 / 81024.6 6.9 3.9
2014-Nov-11 11:00N 52°30' W 128°42'0 0.0 040 / 51024.7 7.1 4.6
2014-Nov-11 10:00N 52°30' W 128°42'0 0.0 040 / 71024.8 7.5 4.8
2014-Nov-11 09:00N 52°30' W 128°42'0 0.0 040 / 61024.9 7.5 5.2
2014-Nov-11 08:00N 52°30' W 128°42'0 0.0 030 / 81025.1 7.6 5.8
2014-Nov-11 07:00N 52°30' W 128°42'0 0.0 010 / 41025.0 7.6 6.4
2014-Nov-11 06:00N 52°30' W 128°42'0 0.0 360 / 61025.0 7.8 6.8
2014-Nov-11 05:00N 52°30' W 128°42'0 0.0 360 / 51025.1 6.8 6.8
2014-Nov-11 04:00N 52°30' W 128°42'0 0.0 360 / 31025.1 7.2 7.2
2014-Nov-11 03:00N 52°30' W 128°42'0 0.0 340 / 61025.0 7.4 7.3
2014-Nov-11 02:00N 52°30' W 128°42'0 0.0 360 / 61024.5 7.9 7.9
2014-Nov-11 01:00N 52°30' W 128°42'0 0.0 220 / 11024.6 8.3 8.3
2014-Nov-11 00:00N 52°30' W 128°42'0 0.0 340 / 21024.6 9.6 9.6
2014-Nov-10 23:00N 52°30' W 128°42'0 0.0 320 / 21024.9 9.6 9.6
2014-Nov-10 22:00N 52°30' W 128°42'   350 / 41024.9 11.711.6
Track history (hours):
 
Tides and Currents Weather Stations Pressure Air Temp Water Temp Dewpoint Dewpoint Depression Visibility Wind Speed Wind Dir Waves Ship Positions

Gordon Reid

Last reported at 2014-Nov-20 22:00 UTC. Time now 2014-Nov-20 23:05 UTC.
Position N 54°18' W 130°18'.

Length 49.95 m; beam 11 m; draft 5.4 m.

Type: SAR. MMSI: 316094000.

Wind from 140 at 5 knots

Barometer 999.5 mb
Air temperature 8.3 ° C
Dewpoint 8.5 ° C
Water temperature 9.7 ° C

Date/timePositionNaut miles runAvg speedWind from/ knotsBaromVisibWave heightAir tempDewpointWater temp
2014-Nov-20 22:00N 54°18' W 130°18'0 0.0 140 / 5999.5 8.3 8.5 9.7
2014-Nov-20 21:00N 54°18' W 130°18'0 0.0 110 / 6999.7 9.1 9.3 9.0
2014-Nov-20 20:00N 54°18' W 130°18'1 3.0 080 / 21000.6 7.9 8.1
2014-Nov-20 19:32N 54°19' W 130°19'1 2.5
2014-Nov-20 19:00N 54°18' W 130°18'1 2.7 1001.2 8.7 8.9 9.2
2014-Nov-20 18:29N 54°19' W 130°19'1 2.8
2014-Nov-20 18:00N 54°18' W 130°18'1 2.5 080 / 21001.4 8.5 8.7 9.1
2014-Nov-20 17:26N 54°19' W 130°19'1 3.1
2014-Nov-20 17:00N 54°18' W 130°18'1 3.0 350 / 11001.7 8.6 8.8 8.9
2014-Nov-20 16:32N 54°19' W 130°19'1 2.5
2014-Nov-20 16:00N 54°18' W 130°18'3 5.9 060 / 61002.1 8.2 8.4 8.2
2014-Nov-20 15:33N 54°17' W 130°22'5 9.0
2014-Nov-20 15:00N 54°12' W 130°24'7 7.0 120 / 131002.3 8.1 8.2 9.2
2014-Nov-20 14:00N 54°06' W 130°18'1312.5 080 / 121002.8 6.7 6.9 9.5
2014-Nov-20 13:00N 53°54' W 130°12'4 3.5 130 / 171002.9 8.9 9.0 9.5
2014-Nov-20 12:00N 53°54' W 130°18'7 7.0 040 / 81002.9 8.8 8.9 9.7
2014-Nov-20 11:00N 53°48' W 130°12'7 7.0 130 / 71003.2 11.811.8 9.9
2014-Nov-20 10:00N 53°42' W 130°06'1312.5 110 / 121003.8 10.510.6 9.1
2014-Nov-20 09:00N 53°30' W 130°00'7 7.0 110 / 31004.3 8.4 8.7 8.9
2014-Nov-20 08:00N 53°24' W 129°54'7 7.0 140 / 21004.7 8.6 8.8 9.0
2014-Nov-20 07:00N 53°18' W 129°48'4 3.6 040 / 51004.6 9.3 9.3 9.0
2014-Nov-20 06:00N 53°18' W 129°42'0 0.0 110 / 91005.0 9.2 9.2
2014-Nov-20 05:00N 53°18' W 129°42'0 0.0 330 / 31005.3 8.7 8.8
2014-Nov-20 04:00N 53°18' W 129°42'0 0.0 120 / 131006.5 8.6 8.7
2014-Nov-20 03:00N 53°18' W 129°42'0 0.0 110 / 91007.1 8.9 9.0 9.1
2014-Nov-20 02:00N 53°18' W 129°42'0 0.0 100 / 131007.3 8.4 8.5 9.1
2014-Nov-20 01:00N 53°18' W 129°42'0 0.0 120 / 101008.2 7.8 7.9 9.1
2014-Nov-20 00:00N 53°18' W 129°42'1312.5 110 / 111008.1 7.9 8.0 9.0
2014-Nov-19 23:00N 53°06' W 129°36'7 3.5 070 / 101008.0 7.9 8.0 9.4
2014-Nov-19 21:00N 53°00' W 129°30'1414.0 050 / 61008.4 8.8 8.8 9.6
2014-Nov-19 20:00N 53°12' W 129°42'1414.0 120 / 161009.3 7.6 7.7 9.1
2014-Nov-19 19:00N 53°24' W 129°54'7 7.0 290 / 71009.9 8.1 8.3 9.0
2014-Nov-19 18:00N 53°30' W 130°00'0 0.0 090 / 11010.8 8.5 8.6
2014-Nov-19 17:00N 53°30' W 130°00'0 0.0 090 / 71011.0 9.3 9.4
2014-Nov-19 16:00N 53°30' W 130°00'0 0.0 180 / 31011.4 9.6 9.6
2014-Nov-19 15:00N 53°30' W 130°00'0 0.0 150 / 61011.7 10.310.2
2014-Nov-19 14:00N 53°30' W 130°00'0 0.0 190 / 41012.0 9.7 9.7
2014-Nov-19 13:00N 53°30' W 130°00'0 0.0 140 / 71012.5 9.8 9.8
2014-Nov-19 12:00N 53°30' W 130°00'0 0.0 170 / 91012.8 10.310.3
2014-Nov-19 11:00N 53°30' W 130°00'0 0.0 150 / 81013.5 10.710.7
2014-Nov-19 10:00N 53°30' W 130°00'0 0.0 180 / 81013.8 10.210.2
2014-Nov-19 09:00N 53°30' W 130°00'0 0.0 140 / 51014.0 10.410.4
2014-Nov-19 08:00N 53°30' W 130°00'0 0.0 180 / 51014.0 10.210.2
2014-Nov-19 07:00N 53°30' W 130°00'0 0.0 160 / 51014.3 10.810.9
2014-Nov-19 06:00N 53°30' W 130°00'0 0.0 140 / 51014.4 10.310.4
2014-Nov-19 05:00N 53°30' W 130°00'0 0.0 140 / 41014.6 10.210.3
2014-Nov-19 04:00N 53°30' W 130°00'0 0.0 130 / 61014.9 10.310.4
2014-Nov-19 03:00N 53°30' W 130°00'0 0.0 140 / 61015.2 10.110.3
2014-Nov-19 02:00N 53°30' W 130°00'0 0.0 160 / 31015.6 9.810.0
2014-Nov-19 01:00N 53°30' W 130°00'0 0.0 150 / 11015.8 8.6 8.9 9.0
2014-Nov-19 00:00N 53°30' W 130°00'0 0.0 170 / 21016.0 8.9 9.1 8.9
2014-Nov-18 23:00N 53°30' W 130°00'7 7.0 160 / 71016.0 8.7 8.9 9.0
2014-Nov-18 22:00N 53°24' W 129°54'2210.8 120 / 151016.2 10.210.4 8.8
2014-Nov-18 20:00N 53°12' W 129°24'1414.0 050 / 121018.0 5.3 5.4 8.6
2014-Nov-18 19:00N 53°24' W 129°12'6 6.0 010 / 271019.3 13.713.1 8.8
2014-Nov-18 18:00N 53°30' W 129°12'0 0.0 310 / 81019.5 2.8 2.8
2014-Nov-18 17:00N 53°30' W 129°12'0 0.0 300 / 151019.4 2.5 2.5
2014-Nov-18 16:00N 53°30' W 129°12'0 0.0 310 / 21019.5 2.7 2.7
2014-Nov-18 15:00N 53°30' W 129°12'0 0.0 320 / 21019.8 2.3 2.3
2014-Nov-18 14:00N 53°30' W 129°12'0 0.0 310 / 31020.1 2.4 2.4
2014-Nov-18 13:00N 53°30' W 129°12'0 0.0 280 / 81020.8 2.8 2.7
2014-Nov-18 12:00N 53°30' W 129°12'0 0.0 240 / 51020.4 3.2 2.9
2014-Nov-18 11:00N 53°30' W 129°12'0 0.0 310 / 51021.2 3.1 2.8
2014-Nov-18 10:00N 53°30' W 129°12'0 0.0 020 / 101021.8 3.7 1.7
2014-Nov-18 09:00N 53°30' W 129°12'0 0.0 340 / 61021.0 4.1 0.8
2014-Nov-18 08:00N 53°30' W 129°12'0 0.0 010 / 81020.8 4.1 0.8
2014-Nov-18 07:00N 53°30' W 129°12'0 0.0 030 / 71021.4 3.8 0.6
2014-Nov-18 06:00N 53°30' W 129°12'0 0.0 360 / 51021.8 3.9 0.5
2014-Nov-18 05:00N 53°30' W 129°12'0 0.0 340 / 21022.3 3.9 0.8
2014-Nov-18 04:00N 53°30' W 129°12'0 0.0 340 / 51023.0 3.8 0.4
2014-Nov-18 03:00N 53°30' W 129°12'0 0.0 330 / 81023.5 3.6 0.3
2014-Nov-18 02:00N 53°30' W 129°12'0 0.0 360 / 41024.3 3.8 0.5
2014-Nov-18 01:00N 53°30' W 129°12'0 0.0 310 / 61024.7 3.8 0.8
2014-Nov-18 00:00N 53°30' W 129°12'0 0.0 320 / 71025.3 4.2 0.9
2014-Nov-17 23:00N 53°30' W 129°12'0 0.0 360 / 41025.8 4.2 1.0
2014-Nov-17 22:00N 53°30' W 129°12'0 0.0 320 / 81026.4 3.9 0.7
2014-Nov-17 21:00N 53°30' W 129°12'0 0.0 320 / 71026.9 3.6 0.7
2014-Nov-17 20:00N 53°30' W 129°12'0 0.0 330 / 61027.6 3.0 0.3
2014-Nov-17 19:00N 53°30' W 129°12'0 0.0 330 / 81027.9 2.7 0.1 8.4
2014-Nov-17 18:00N 53°30' W 129°12'0 0.0 350 / 81028.1 2.3 0.1 8.3
2014-Nov-17 17:00N 53°30' W 129°12'6 6.0 360 / 61028.3 2.1 0.1 8.3
2014-Nov-17 16:00N 53°24' W 129°12'7 3.5 060 / 71027.6 2.2 1.3 8.2
2014-Nov-17 14:00N 53°18' W 129°18'0 0.0 340 / 61028.3 4.4 1.7 8.5
2014-Nov-17 13:00N 53°18' W 129°18'4 3.6 010 / 41028.5 4.6 2.5 8.4
2014-Nov-17 12:00N 53°18' W 129°12'0 0.0 030 / 181028.7 3.6 2.4 8.3
2014-Nov-17 11:00N 53°18' W 129°12'9 9.3 020 / 161028.7 3.0 2.9 8.6
2014-Nov-17 10:00N 53°24' W 129°24'1414.0 260 / 31029.2 2.6 2.4 7.0
2014-Nov-17 09:00N 53°36' W 129°36'9 9.3 250 / 61030.3 1.3 1.3 9.4
2014-Nov-17 08:00N 53°42' W 129°48'1413.9 190 / 91030.1 2.6 2.5 8.3
2014-Nov-17 07:00N 53°54' W 130°00'7 7.1 220 / 61030.4 2.0 2.0 8.5
2014-Nov-17 06:00N 53°54' W 130°12'1413.9 290 / 51030.3 3.4 3.3 8.1
2014-Nov-17 05:00N 54°06' W 130°24'817.5 210 / 61030.2 5.4 4.1 8.0
2014-Nov-17 04:33N 54°14' W 130°21'5 8.5
2014-Nov-17 04:00N 54°18' W 130°24'2 4.0 050 / 51030.2 4.4 4.3 7.2
2014-Nov-17 03:33N 54°19' W 130°21'2 3.7
2014-Nov-17 03:00N 54°18' W 130°18'2 4.4 130 / 41030.5 0.8 0.8
2014-Nov-17 02:32N 54°20' W 130°17'2 3.7
2014-Nov-17 02:00N 54°18' W 130°18'2 4.4 150 / 41030.6 1.1 1.1
2014-Nov-17 01:32N 54°20' W 130°17'2 3.7
2014-Nov-17 01:00N 54°18' W 130°18'2 4.4 160 / 41031.1 1.6 1.6
2014-Nov-17 00:32N 54°20' W 130°17'2 3.7
2014-Nov-17 00:00N 54°18' W 130°18'2 4.4 150 / 21031.1 3.2 3.2 9.5
2014-Nov-16 23:32N 54°20' W 130°17'2 3.7
2014-Nov-16 23:00N 54°18' W 130°18'2 4.4 230 / 21031.7 4.7 4.0 9.3
2014-Nov-16 22:32N 54°20' W 130°17'2 3.7
2014-Nov-16 22:00N 54°18' W 130°18'2 5.3 190 / 11031.7 5.2 3.4 9.3
2014-Nov-16 21:34N 54°20' W 130°17'5 8.2
2014-Nov-16 21:00N 54°18' W 130°24'5 9.6 050 / 31032.4 4.5 4.4 8.2
2014-Nov-16 20:27N 54°13' W 130°21'715.9
2014-Nov-16 20:00N 54°06' W 130°18'1312.5 100 / 21032.5 5.0 2.6 8.6
2014-Nov-16 19:00N 53°54' W 130°12'7 7.0 090 / 81032.6 3.5 2.4 7.9
2014-Nov-16 18:00N 53°48' W 130°18'9 9.3 110 / 31032.5 2.2 2.0 9.1
2014-Nov-16 17:00N 53°42' W 130°06'1312.5 010 / 31032.4 1.5 1.4 8.7
2014-Nov-16 16:00N 53°30' W 130°00'0 0.0 100 / 51032.3 2.5 1.2
2014-Nov-16 15:00N 53°30' W 130°00'0 0.0 090 / 51032.4 2.9 2.8
2014-Nov-16 14:00N 53°30' W 130°00'0 0.0 130 / 71032.4 3.0 2.6
2014-Nov-16 13:00N 53°30' W 130°00'0 0.0 110 / 71033.0 3.5 2.7
2014-Nov-16 12:00N 53°30' W 130°00'0 0.0 160 / 51033.5 3.3 2.3
2014-Nov-16 11:00N 53°30' W 130°00'0 0.0 110 / 51033.5 2.7 2.1
2014-Nov-16 10:00N 53°30' W 130°00'0 0.0 090 / 51033.8 2.7 2.7
2014-Nov-16 09:00N 53°30' W 130°00'0 0.0 110 / 31033.6 2.8 2.7
2014-Nov-16 08:00N 53°30' W 130°00'0 0.0 100 / 31033.5 3.2 2.5
2014-Nov-16 07:00N 53°30' W 130°00'0 0.0 110 / 31033.1 2.8 2.7
2014-Nov-16 06:00N 53°30' W 130°00'0 0.0 090 / 11032.9 3.6 3.5
2014-Nov-16 05:00N 53°30' W 130°00'0 0.0 100 / 41032.9 3.6 3.6 8.9
2014-Nov-16 04:00N 53°30' W 130°00'0 0.0 120 / 61032.8 4.6 4.0 9.1
2014-Nov-16 03:00N 53°30' W 130°00'0 0.0 110 / 41032.3 4.9 4.2 9.1
2014-Nov-16 02:00N 53°30' W 130°00'1212.3 170 / 91031.8 6.5 5.3 9.0
2014-Nov-16 01:00N 53°36' W 130°18'1110.7 210 / 71031.5 6.7 4.9 9.5
2014-Nov-16 00:00N 53°36' W 130°36'6 6.0 160 / 111031.3 8.2 6.210.2
2014-Nov-15 23:00N 53°30' W 130°36'0 0.0 140 / 41031.1 8.3 5.910.2
2014-Nov-15 22:00N 53°30' W 130°36'0 0.0 160 / 111030.9 8.5 4.810.1
2014-Nov-15 21:00N 53°30' W 130°36'0 0.0 140 / 51030.9 8.4 4.610.2
2014-Nov-15 20:00N 53°30' W 130°36'0 0.0 180 / 111030.8 8.8 3.710.0
2014-Nov-15 19:00N 53°30' W 130°36'6 6.0 140 / 31030.5 8.1 2.910.2
2014-Nov-15 18:00N 53°36' W 130°36'0 0.0 080 / 31030.1 6.6 1.0
2014-Nov-15 17:00N 53°36' W 130°36'0 0.0 140 / 61029.6 5.6-1.5
2014-Nov-15 16:00N 53°36' W 130°36'0 0.0 110 / 61029.2 5.3-1.8
2014-Nov-15 15:00N 53°36' W 130°36'0 0.0 110 / 51028.8 4.2-1.7
2014-Nov-15 14:00N 53°36' W 130°36'0 0.0 110 / 71028.5 5.4-2.1
2014-Nov-15 12:00N 53°36' W 130°36'0 0.0 080 / 41027.7 5.0-2.0
2014-Nov-15 11:00N 53°36' W 130°36'0 0.0 110 / 71027.3 6.3-1.2
2014-Nov-15 10:00N 53°36' W 130°36'0 0.0 1027.1 3.3 1.4
2014-Nov-15 09:00N 53°36' W 130°36'0 0.0 110 / 21026.8 6.6-0.6
2014-Nov-15 08:00N 53°36' W 130°36'0 0.0 060 / 31026.3 4.4 3.0
2014-Nov-15 07:00N 53°36' W 130°36'0 0.0 080 / 21025.6 4.7 2.4
2014-Nov-15 06:00N 53°36' W 130°36'0 0.0 060 / 31025.0 4.5 4.1
2014-Nov-15 05:00N 53°36' W 130°36'0 0.0 090 / 31024.6 6.9 2.010.1
2014-Nov-15 04:00N 53°36' W 130°36'0 0.0 070 / 41024.2 6.0 4.310.2
2014-Nov-15 03:00N 53°36' W 130°36'0 0.0 050 / 11023.9 5.8 5.310.3
2014-Nov-15 02:00N 53°36' W 130°36'4 3.6 070 / 111023.5 8.3 7.410.3
2014-Nov-15 01:00N 53°36' W 130°42'0 0.0 070 / 31023.6 8.9 7.410.5
2014-Nov-15 00:00N 53°36' W 130°42'0 0.0 060 / 31023.6 9.7 6.610.3
2014-Nov-14 23:00N 53°36' W 130°42'9 9.3 050 / 91023.7 9.1 7.010.2
2014-Nov-14 22:00N 53°42' W 130°30'0 0.0 070 / 21023.9 8.7 4.610.0
2014-Nov-14 21:00N 53°42' W 130°30'0 0.0 080 / 51024.0 7.9 4.310.1
2014-Nov-14 20:00N 53°42' W 130°30'4 3.6 050 / 41023.8 8.1 4.510.0
2014-Nov-14 19:00N 53°42' W 130°36'7 7.0 080 / 31023.5 6.8 4.7 9.9
2014-Nov-14 18:00N 53°48' W 130°30'0 0.0 030 / 21023.3 5.8 1.4
2014-Nov-14 17:00N 53°48' W 130°30'0 0.0 040 / 61023.0 4.8 0.2
2014-Nov-14 16:00N 53°48' W 130°30'0 0.0 030 / 41022.5 4.0 0.8
2014-Nov-14 15:00N 53°48' W 130°30'0 0.0 010 / 51022.3 3.9 0.4
2014-Nov-14 14:00N 53°48' W 130°30'0 0.0 360 / 41022.2 4.5 1.0
2014-Nov-14 13:00N 53°48' W 130°30'0 0.0 020 / 51022.1 4.6 1.4
2014-Nov-14 12:00N 53°48' W 130°30'0 0.0 290 / 21022.1 2.6 2.0
2014-Nov-14 11:00N 53°48' W 130°30'0 0.0 290 / 11021.8 2.8 2.5
2014-Nov-14 10:00N 53°48' W 130°30'0 0.0 310 / 21021.4 2.8 2.1
2014-Nov-14 09:00N 53°48' W 130°30'0 0.0 340 / 21021.3 3.0 2.4
2014-Nov-14 08:00N 53°48' W 130°30'0 0.0 1020.9 3.0 2.3
2014-Nov-14 07:00N 53°48' W 130°30'0 0.0 350 / 21020.3 3.5 2.7
2014-Nov-14 06:00N 53°48' W 130°30'0 0.0 350 / 11019.7 3.5 2.7
2014-Nov-14 05:00N 53°48' W 130°30'0 0.0 360 / 21019.3 3.9 2.2
2014-Nov-14 04:00N 53°48' W 130°30'0 0.0 010 / 21018.9 4.7 2.9
2014-Nov-14 03:00N 53°48' W 130°30'0 0.0 360 / 71018.4 5.8 3.010.3
2014-Nov-14 02:00N 53°48' W 130°30'0 0.0 330 / 21018.3 4.8 4.410.4
2014-Nov-14 01:00N 53°48' W 130°30'4 3.5 290 / 31018.4 5.0 4.810.4
2014-Nov-14 00:00N 53°48' W 130°36'9 9.3 260 / 61018.4 8.6 6.710.3
2014-Nov-13 23:00N 53°54' W 130°48'4 3.5 230 / 11018.6 8.5 5.510.4
2014-Nov-13 22:00N 53°54' W 130°54'0 0.0 050 / 51018.9 9.7 6.610.7
2014-Nov-13 21:00N 53°54' W 130°54'0 0.0 060 / 61019.0 8.1 4.911.1
2014-Nov-13 20:00N 53°54' W 130°54'4 3.5 040 / 41019.2 8.1 5.110.7
2014-Nov-13 19:00N 53°54' W 130°48'6 6.0 060 / 21019.1 8.8 4.210.5
2014-Nov-13 18:00N 54°00' W 130°48'6 6.0 040 / 71018.8 7.6 2.010.5
2014-Nov-13 17:00N 54°06' W 130°48'6 6.0 020 / 51019.0 6.6 5.010.7
2014-Nov-13 16:00N 54°12' W 130°48'1 1.4 050 / 71018.8 6.4 4.1
2014-Nov-13 15:05N 54°13' W 130°46'113.4
2014-Nov-13 15:00N 54°12' W 130°48'1 2.7 050 / 101018.8 6.2 3.9
2014-Nov-13 14:32N 54°13' W 130°46'1 2.3
2014-Nov-13 14:00N 54°12' W 130°48'1 2.7 040 / 91019.1 6.3 3.7
2014-Nov-13 13:32N 54°13' W 130°46'1 2.3
2014-Nov-13 13:00N 54°12' W 130°48'1 2.5 060 / 91019.5 6.5 4.6
2014-Nov-13 12:29N 54°13' W 130°46'1 2.5
2014-Nov-13 12:00N 54°12' W 130°48'1 2.7 060 / 91020.0 6.7 5.3
2014-Nov-13 11:32N 54°13' W 130°46'1 2.3
2014-Nov-13 11:00N 54°12' W 130°48'1 1.5 060 / 81020.4 7.1 4.5
2014-Nov-13 10:11N 54°13' W 130°46'1 6.5
2014-Nov-13 10:00N 54°12' W 130°48'1 1.8 050 / 101020.7 6.8 5.2
2014-Nov-13 09:17N 54°13' W 130°46'1 4.3
2014-Nov-13 09:00N 54°12' W 130°48'1 2.7 140 / 31021.1 6.4 5.7
2014-Nov-13 08:32N 54°13' W 130°46'1 2.3
2014-Nov-13 08:00N 54°12' W 130°48'1 2.4 070 / 71021.1 7.4 4.4
2014-Nov-13 07:29N 54°13' W 130°46'1 2.5
2014-Nov-13 07:00N 54°12' W 130°48'1 2.7 070 / 101021.2 7.2 5.1
2014-Nov-13 06:32N 54°13' W 130°46'1 2.2
2014-Nov-13 06:00N 54°12' W 130°48'1 2.5 050 / 111020.9 7.3 5.7
2014-Nov-13 05:29N 54°13' W 130°46'1 2.5
2014-Nov-13 05:00N 54°12' W 130°48'1 2.7 070 / 81020.9 7.5 5.8
2014-Nov-13 04:32N 54°13' W 130°46'1 2.3
2014-Nov-13 04:00N 54°12' W 130°48'1 2.7 080 / 41021.0 7.6 7.3
2014-Nov-13 03:32N 54°13' W 130°46'1 2.3
2014-Nov-13 03:00N 54°12' W 130°48'1 2.7 040 / 91021.1 7.6 6.1
2014-Nov-13 02:32N 54°13' W 130°46'1 2.3
2014-Nov-13 02:00N 54°12' W 130°48'1 2.5 110 / 21021.3 6.1 5.711.1
2014-Nov-13 01:29N 54°13' W 130°46'1 2.5
2014-Nov-13 01:00N 54°12' W 130°48'1 2.7 170 / 11021.7 6.1 6.011.2
2014-Nov-13 00:32N 54°13' W 130°46'1 2.3
2014-Nov-13 00:00N 54°12' W 130°48'1 2.5 050 / 61022.2 8.0 4.811.2
2014-Nov-12 23:30N 54°13' W 130°46'3 5.2
2014-Nov-12 23:00N 54°12' W 130°42'4 8.5 350 / 31022.6 7.1 4.410.7
2014-Nov-12 22:33N 54°11' W 130°36'712.4
2014-Nov-12 22:00N 54°12' W 130°24'1413.9 040 / 61023.1 8.1 3.0 9.4
2014-Nov-12 21:00N 54°00' W 130°12'7 7.0 070 / 31024.1 5.7 3.1 9.0
2014-Nov-12 20:00N 53°54' W 130°06'1616.0 060 / 21024.6 6.1 2.5 8.6
2014-Nov-12 19:00N 53°42' W 129°48'1414.0 130 / 61025.8 5.0 2.4 8.5
2014-Nov-12 18:00N 53°30' W 129°36'1212.3 160 / 31026.3 5.8-0.9 7.8
2014-Nov-12 17:00N 53°24' W 129°18'0 0.0 360 / 91025.9 4.0-1.5 8.6
2014-Nov-12 16:00N 53°24' W 129°18'0 0.0 350 / 91027.2 3.2-1.6
2014-Nov-12 15:00N 53°24' W 129°18'0 0.0 350 / 61027.7 2.9-1.8
2014-Nov-12 14:00N 53°24' W 129°18'0 0.0 360 / 101027.8 3.1-1.5
2014-Nov-12 13:00N 53°24' W 129°18'0 0.0 360 / 101028.0 3.2-1.4
2014-Nov-12 12:00N 53°24' W 129°18'0 0.0 340 / 51028.3 3.0-1.4
2014-Nov-12 11:00N 53°24' W 129°18'0 0.0 350 / 71028.6 3.2-1.5
2014-Nov-12 10:00N 53°24' W 129°18'0 0.0 350 / 81028.9 3.4-1.3
2014-Nov-12 09:00N 53°24' W 129°18'0 0.0 360 / 101029.0 3.6-1.2
2014-Nov-12 08:00N 53°24' W 129°18'0 0.0 350 / 41029.4 3.7-1.2
2014-Nov-12 07:00N 53°24' W 129°18'0 0.0 340 / 31029.4 3.9-1.2
2014-Nov-12 06:00N 53°24' W 129°18'0 0.0 340 / 71029.2 4.4-0.7
2014-Nov-12 05:00N 53°24' W 129°18'0 0.0 350 / 41028.9 4.6-0.3
2014-Nov-12 04:00N 53°24' W 129°18'0 0.0 350 / 71028.7 4.9-0.1
2014-Nov-12 03:00N 53°24' W 129°18'0 0.0 350 / 91028.4 5.2 0.1 8.3
2014-Nov-12 02:00N 53°24' W 129°18'0 0.0 350 / 101028.0 5.7 0.6 8.6
2014-Nov-12 01:00N 53°24' W 129°18'4 3.6 360 / 121028.0 6.3 0.9 8.6
2014-Nov-12 00:00N 53°24' W 129°12'1212.3 030 / 161027.4 6.8 1.5 8.8
2014-Nov-11 23:00N 53°18' W 128°54'7 7.0 030 / 121027.5 7.5 1.1 9.2
2014-Nov-11 22:00N 53°12' W 128°48'9 9.4 240 / 51027.9 5.8 3.2 9.0
2014-Nov-11 21:00N 53°06' W 128°36'1312.5 360 / 161027.5 6.0 3.0 8.6
2014-Nov-11 20:00N 52°54' W 128°30'1312.5 030 / 91027.5 5.8 3.6 8.8
2014-Nov-11 19:00N 52°42' W 128°36'7 7.0 030 / 141026.8 5.6 4.7 9.0
2014-Nov-11 18:00N 52°36' W 128°30'1212.0 360 / 151026.6 6.7 3.8 9.5
2014-Nov-11 17:00N 52°24' W 128°30'9 9.5 100 / 131025.6 7.8 2.8 9.8
2014-Nov-11 16:00N 52°30' W 128°42'0 0.0 360 / 41025.2 5.4 1.9
2014-Nov-11 15:00N 52°30' W 128°42'0 0.0 010 / 71025.0 6.1 2.3
2014-Nov-11 14:00N 52°30' W 128°42'0 0.0 360 / 61024.8 6.3 3.0
2014-Nov-11 13:00N 52°30' W 128°42'0 0.0 020 / 61024.8 6.6 3.4
2014-Nov-11 12:00N 52°30' W 128°42'0 0.0 040 / 81024.6 6.9 3.9
2014-Nov-11 11:00N 52°30' W 128°42'0 0.0 040 / 51024.7 7.1 4.6
2014-Nov-11 10:00N 52°30' W 128°42'0 0.0 040 / 71024.8 7.5 4.8
2014-Nov-11 09:00N 52°30' W 128°42'0 0.0 040 / 61024.9 7.5 5.2
2014-Nov-11 08:00N 52°30' W 128°42'0 0.0 030 / 81025.1 7.6 5.8
2014-Nov-11 07:00N 52°30' W 128°42'0 0.0 010 / 41025.0 7.6 6.4
2014-Nov-11 06:00N 52°30' W 128°42'0 0.0 360 / 61025.0 7.8 6.8
2014-Nov-11 05:00N 52°30' W 128°42'0 0.0 360 / 51025.1 6.8 6.8
2014-Nov-11 04:00N 52°30' W 128°42'0 0.0 360 / 31025.1 7.2 7.2
2014-Nov-11 03:00N 52°30' W 128°42'0 0.0 340 / 61025.0 7.4 7.3
2014-Nov-11 02:00N 52°30' W 128°42'0 0.0 360 / 61024.5 7.9 7.9
2014-Nov-11 01:00N 52°30' W 128°42'0 0.0 220 / 11024.6 8.3 8.3
2014-Nov-11 00:00N 52°30' W 128°42'0 0.0 340 / 21024.6 9.6 9.6
2014-Nov-10 23:00N 52°30' W 128°42'0 0.0 320 / 21024.9 9.6 9.6
2014-Nov-10 22:00N 52°30' W 128°42'   350 / 41024.9 11.711.6

Dump ship's entire track history